sensor_id;sensor_type;location;lat;lon;timestamp;P1;durP1;ratioP1;P2;durP2;ratioP2
74616;SDS011;63123;50.906;4.198;2023-02-24T00:01:09;6.10;;;4.53;;
74616;SDS011;63123;50.906;4.198;2023-02-24T00:03:37;7.97;;;5.25;;
74616;SDS011;63123;50.906;4.198;2023-02-24T00:06:03;7.07;;;5.22;;
74616;SDS011;63123;50.906;4.198;2023-02-24T00:08:36;6.50;;;4.65;;
74616;SDS011;63123;50.906;4.198;2023-02-24T00:11:07;6.90;;;4.63;;
74616;SDS011;63123;50.906;4.198;2023-02-24T00:13:34;6.72;;;4.80;;
74616;SDS011;63123;50.906;4.198;2023-02-24T00:16:00;7.07;;;4.97;;
74616;SDS011;63123;50.906;4.198;2023-02-24T00:18:27;5.82;;;4.60;;
74616;SDS011;63123;50.906;4.198;2023-02-24T00:20:52;7.60;;;4.82;;
74616;SDS011;63123;50.906;4.198;2023-02-24T00:23:21;6.82;;;4.68;;
74616;SDS011;63123;50.906;4.198;2023-02-24T00:25:48;5.80;;;4.50;;
74616;SDS011;63123;50.906;4.198;2023-02-24T00:28:13;5.50;;;4.32;;
74616;SDS011;63123;50.906;4.198;2023-02-24T00:30:39;6.28;;;4.45;;
74616;SDS011;63123;50.906;4.198;2023-02-24T00:33:05;7.50;;;5.10;;
74616;SDS011;63123;50.906;4.198;2023-02-24T00:35:31;7.15;;;5.07;;
74616;SDS011;63123;50.906;4.198;2023-02-24T00:37:57;5.63;;;4.15;;
74616;SDS011;63123;50.906;4.198;2023-02-24T00:40:22;5.22;;;4.10;;
74616;SDS011;63123;50.906;4.198;2023-02-24T00:42:48;8.07;;;5.07;;
74616;SDS011;63123;50.906;4.198;2023-02-24T00:45:14;6.95;;;5.03;;
74616;SDS011;63123;50.906;4.198;2023-02-24T00:47:41;6.63;;;5.05;;
74616;SDS011;63123;50.906;4.198;2023-02-24T00:50:07;5.82;;;4.50;;
74616;SDS011;63123;50.906;4.198;2023-02-24T00:52:33;7.85;;;5.22;;
74616;SDS011;63123;50.906;4.198;2023-02-24T00:55:00;6.30;;;4.18;;
74616;SDS011;63123;50.906;4.198;2023-02-24T00:57:28;5.97;;;4.43;;
74616;SDS011;63123;50.906;4.198;2023-02-24T00:59:54;6.18;;;4.93;;
74616;SDS011;63123;50.906;4.198;2023-02-24T01:02:22;6.55;;;4.43;;
74616;SDS011;63123;50.906;4.198;2023-02-24T01:04:47;6.63;;;4.63;;
74616;SDS011;63123;50.906;4.198;2023-02-24T01:07:14;6.55;;;5.07;;
74616;SDS011;63123;50.906;4.198;2023-02-24T01:09:41;6.82;;;4.78;;
74616;SDS011;63123;50.906;4.198;2023-02-24T01:12:10;6.18;;;4.45;;
74616;SDS011;63123;50.906;4.198;2023-02-24T01:14:46;5.45;;;3.90;;
74616;SDS011;63123;50.906;4.198;2023-02-24T01:17:14;6.82;;;4.85;;
74616;SDS011;63123;50.906;4.198;2023-02-24T01:19:42;6.00;;;4.93;;
74616;SDS011;63123;50.906;4.198;2023-02-24T01:22:10;7.15;;;4.57;;
74616;SDS011;63123;50.906;4.198;2023-02-24T01:24:39;6.22;;;4.68;;
74616;SDS011;63123;50.906;4.198;2023-02-24T01:27:06;6.22;;;5.03;;
74616;SDS011;63123;50.906;4.198;2023-02-24T01:29:33;8.45;;;5.57;;
74616;SDS011;63123;50.906;4.198;2023-02-24T01:32:04;5.35;;;4.45;;
74616;SDS011;63123;50.906;4.198;2023-02-24T01:34:30;6.55;;;4.65;;
74616;SDS011;63123;50.906;4.198;2023-02-24T01:36:56;6.57;;;4.80;;
74616;SDS011;63123;50.906;4.198;2023-02-24T01:39:22;5.88;;;5.13;;
74616;SDS011;63123;50.906;4.198;2023-02-24T01:41:49;6.60;;;4.38;;
74616;SDS011;63123;50.906;4.198;2023-02-24T01:46:46;6.10;;;4.20;;
74616;SDS011;63123;50.906;4.198;2023-02-24T01:49:17;5.38;;;3.85;;
74616;SDS011;63123;50.906;4.198;2023-02-24T01:51:58;7.10;;;4.32;;
74616;SDS011;63123;50.906;4.198;2023-02-24T01:54:35;7.70;;;4.93;;
74616;SDS011;63123;50.906;4.198;2023-02-24T01:57:08;6.20;;;4.32;;
74616;SDS011;63123;50.906;4.198;2023-02-24T01:59:37;4.75;;;3.63;;
74616;SDS011;63123;50.906;4.198;2023-02-24T02:02:04;5.63;;;4.55;;
74616;SDS011;63123;50.906;4.198;2023-02-24T02:07:19;4.47;;;3.45;;
74616;SDS011;63123;50.906;4.198;2023-02-24T02:09:46;8.23;;;4.00;;
74616;SDS011;63123;50.906;4.198;2023-02-24T02:12:13;4.97;;;3.97;;
74616;SDS011;63123;50.906;4.198;2023-02-24T02:14:44;5.10;;;3.65;;
74616;SDS011;63123;50.906;4.198;2023-02-24T02:17:19;4.78;;;3.75;;
74616;SDS011;63123;50.906;4.198;2023-02-24T02:23:07;4.95;;;3.22;;
74616;SDS011;63123;50.906;4.198;2023-02-24T02:28:24;6.00;;;3.70;;
74616;SDS011;63123;50.906;4.198;2023-02-24T02:36:38;6.30;;;3.75;;
74616;SDS011;63123;50.906;4.198;2023-02-24T02:42:49;5.53;;;3.50;;
74616;SDS011;63123;50.906;4.198;2023-02-24T02:47:33;4.00;;;3.08;;
74616;SDS011;63123;50.906;4.198;2023-02-24T02:52:38;5.20;;;3.38;;
74616;SDS011;63123;50.906;4.198;2023-02-24T02:55:26;4.70;;;2.78;;
74616;SDS011;63123;50.906;4.198;2023-02-24T03:00:34;5.85;;;3.35;;
74616;SDS011;63123;50.906;4.198;2023-02-24T03:03:09;5.30;;;3.45;;
74616;SDS011;63123;50.906;4.198;2023-02-24T03:05:42;5.45;;;3.50;;
74616;SDS011;63123;50.906;4.198;2023-02-24T03:08:14;4.32;;;2.97;;
74616;SDS011;63123;50.906;4.198;2023-02-24T03:10:44;4.57;;;2.92;;
74616;SDS011;63123;50.906;4.198;2023-02-24T03:13:15;4.53;;;3.03;;
74616;SDS011;63123;50.906;4.198;2023-02-24T03:15:54;2.90;;;2.33;;
74616;SDS011;63123;50.906;4.198;2023-02-24T03:18:26;5.25;;;3.47;;
74616;SDS011;63123;50.906;4.198;2023-02-24T03:21:01;6.07;;;3.70;;
74616;SDS011;63123;50.906;4.198;2023-02-24T03:23:42;3.72;;;2.50;;
74616;SDS011;63123;50.906;4.198;2023-02-24T03:26:10;5.30;;;3.47;;
74616;SDS011;63123;50.906;4.198;2023-02-24T03:29:05;3.80;;;3.00;;
74616;SDS011;63123;50.906;4.198;2023-02-24T03:31:44;5.20;;;4.10;;
74616;SDS011;63123;50.906;4.198;2023-02-24T03:34:29;4.68;;;2.70;;
74616;SDS011;63123;50.906;4.198;2023-02-24T03:37:03;4.82;;;3.40;;
74616;SDS011;63123;50.906;4.198;2023-02-24T03:39:29;4.03;;;2.85;;
74616;SDS011;63123;50.906;4.198;2023-02-24T03:41:59;4.40;;;2.97;;
74616;SDS011;63123;50.906;4.198;2023-02-24T03:44:32;5.90;;;3.40;;
74616;SDS011;63123;50.906;4.198;2023-02-24T03:46:58;5.28;;;3.00;;
74616;SDS011;63123;50.906;4.198;2023-02-24T03:49:26;3.80;;;3.13;;
74616;SDS011;63123;50.906;4.198;2023-02-24T03:57:30;6.00;;;2.97;;
74616;SDS011;63123;50.906;4.198;2023-02-24T04:00:18;4.13;;;2.90;;
74616;SDS011;63123;50.906;4.198;2023-02-24T04:06:39;6.03;;;3.55;;
74616;SDS011;63123;50.906;4.198;2023-02-24T04:17:13;4.75;;;3.15;;
74616;SDS011;63123;50.906;4.198;2023-02-24T04:20:03;3.40;;;2.55;;
74616;SDS011;63123;50.906;4.198;2023-02-24T04:22:45;3.22;;;2.45;;
74616;SDS011;63123;50.906;4.198;2023-02-24T04:25:14;4.13;;;2.65;;
74616;SDS011;63123;50.906;4.198;2023-02-24T04:27:43;3.30;;;2.75;;
74616;SDS011;63123;50.906;4.198;2023-02-24T04:30:11;6.88;;;3.45;;
74616;SDS011;63123;50.906;4.198;2023-02-24T04:32:38;5.25;;;3.40;;
74616;SDS011;63123;50.906;4.198;2023-02-24T04:35:07;4.55;;;2.70;;
74616;SDS011;63123;50.906;4.198;2023-02-24T04:37:36;5.47;;;3.17;;
74616;SDS011;63123;50.906;4.198;2023-02-24T04:40:04;4.15;;;2.47;;
74616;SDS011;63123;50.906;4.198;2023-02-24T04:42:34;4.03;;;2.90;;
74616;SDS011;63123;50.906;4.198;2023-02-24T04:45:10;6.80;;;3.70;;
74616;SDS011;63123;50.906;4.198;2023-02-24T04:47:36;4.93;;;2.70;;
74616;SDS011;63123;50.906;4.198;2023-02-24T04:50:02;4.53;;;2.28;;
74616;SDS011;63123;50.906;4.198;2023-02-24T04:52:30;5.00;;;2.58;;
74616;SDS011;63123;50.906;4.198;2023-02-24T04:54:57;4.55;;;2.90;;
74616;SDS011;63123;50.906;4.198;2023-02-24T04:57:23;4.90;;;2.60;;
74616;SDS011;63123;50.906;4.198;2023-02-24T04:59:49;4.10;;;3.05;;
74616;SDS011;63123;50.906;4.198;2023-02-24T05:02:17;4.03;;;2.50;;
74616;SDS011;63123;50.906;4.198;2023-02-24T05:04:44;4.57;;;2.83;;
74616;SDS011;63123;50.906;4.198;2023-02-24T05:07:13;5.05;;;3.65;;
74616;SDS011;63123;50.906;4.198;2023-02-24T05:09:40;5.50;;;2.80;;
74616;SDS011;63123;50.906;4.198;2023-02-24T05:12:06;4.93;;;2.40;;
74616;SDS011;63123;50.906;4.198;2023-02-24T05:14:33;5.70;;;2.55;;
74616;SDS011;63123;50.906;4.198;2023-02-24T05:16:59;4.18;;;2.47;;
74616;SDS011;63123;50.906;4.198;2023-02-24T05:19:25;4.82;;;2.47;;
74616;SDS011;63123;50.906;4.198;2023-02-24T05:22:09;4.30;;;2.45;;
74616;SDS011;63123;50.906;4.198;2023-02-24T05:24:35;4.18;;;2.72;;
74616;SDS011;63123;50.906;4.198;2023-02-24T05:27:01;4.53;;;2.97;;
74616;SDS011;63123;50.906;4.198;2023-02-24T05:29:28;4.57;;;2.33;;
74616;SDS011;63123;50.906;4.198;2023-02-24T05:31:58;3.17;;;2.17;;
74616;SDS011;63123;50.906;4.198;2023-02-24T05:34:25;3.78;;;2.58;;
74616;SDS011;63123;50.906;4.198;2023-02-24T05:36:51;3.20;;;2.30;;
74616;SDS011;63123;50.906;4.198;2023-02-24T05:39:17;3.75;;;2.25;;
74616;SDS011;63123;50.906;4.198;2023-02-24T05:41:44;3.50;;;2.50;;
74616;SDS011;63123;50.906;4.198;2023-02-24T05:44:16;3.53;;;2.45;;
74616;SDS011;63123;50.906;4.198;2023-02-24T05:46:54;4.75;;;2.30;;
74616;SDS011;63123;50.906;4.198;2023-02-24T05:49:23;3.42;;;1.92;;
74616;SDS011;63123;50.906;4.198;2023-02-24T05:51:55;4.28;;;2.30;;
74616;SDS011;63123;50.906;4.198;2023-02-24T05:54:31;2.55;;;1.95;;
74616;SDS011;63123;50.906;4.198;2023-02-24T05:57:00;2.92;;;2.15;;
74616;SDS011;63123;50.906;4.198;2023-02-24T05:59:27;3.45;;;2.38;;
74616;SDS011;63123;50.906;4.198;2023-02-24T06:02:00;5.68;;;2.63;;
74616;SDS011;63123;50.906;4.198;2023-02-24T06:04:34;4.43;;;2.75;;
74616;SDS011;63123;50.906;4.198;2023-02-24T06:07:05;3.90;;;2.47;;
74616;SDS011;63123;50.906;4.198;2023-02-24T06:09:37;4.30;;;2.58;;
74616;SDS011;63123;50.906;4.198;2023-02-24T06:12:06;4.47;;;2.85;;
74616;SDS011;63123;50.906;4.198;2023-02-24T06:14:33;3.47;;;2.35;;
74616;SDS011;63123;50.906;4.198;2023-02-24T06:16:58;3.83;;;2.50;;
74616;SDS011;63123;50.906;4.198;2023-02-24T06:19:27;3.83;;;2.40;;
74616;SDS011;63123;50.906;4.198;2023-02-24T06:21:56;6.03;;;2.92;;
74616;SDS011;63123;50.906;4.198;2023-02-24T06:24:25;3.65;;;2.28;;
74616;SDS011;63123;50.906;4.198;2023-02-24T06:26:53;5.45;;;2.30;;
74616;SDS011;63123;50.906;4.198;2023-02-24T06:29:27;5.40;;;2.88;;
74616;SDS011;63123;50.906;4.198;2023-02-24T06:31:54;3.60;;;2.10;;
74616;SDS011;63123;50.906;4.198;2023-02-24T06:34:23;3.70;;;2.53;;
74616;SDS011;63123;50.906;4.198;2023-02-24T06:36:50;4.03;;;2.50;;
74616;SDS011;63123;50.906;4.198;2023-02-24T06:39:16;4.22;;;2.30;;
74616;SDS011;63123;50.906;4.198;2023-02-24T06:41:42;3.63;;;2.30;;
74616;SDS011;63123;50.906;4.198;2023-02-24T06:44:09;4.28;;;2.20;;
74616;SDS011;63123;50.906;4.198;2023-02-24T06:46:35;4.18;;;2.63;;
74616;SDS011;63123;50.906;4.198;2023-02-24T06:49:01;3.20;;;2.17;;
74616;SDS011;63123;50.906;4.198;2023-02-24T06:51:27;3.60;;;2.50;;
74616;SDS011;63123;50.906;4.198;2023-02-24T06:53:54;5.13;;;2.72;;
74616;SDS011;63123;50.906;4.198;2023-02-24T06:56:21;3.72;;;2.30;;
74616;SDS011;63123;50.906;4.198;2023-02-24T06:58:48;2.70;;;2.08;;
74616;SDS011;63123;50.906;4.198;2023-02-24T07:01:19;3.42;;;2.00;;
74616;SDS011;63123;50.906;4.198;2023-02-24T07:03:50;3.10;;;1.90;;
74616;SDS011;63123;50.906;4.198;2023-02-24T07:06:41;3.95;;;2.45;;
74616;SDS011;63123;50.906;4.198;2023-02-24T07:09:09;3.28;;;2.20;;
74616;SDS011;63123;50.906;4.198;2023-02-24T07:11:38;3.28;;;2.05;;
74616;SDS011;63123;50.906;4.198;2023-02-24T07:14:09;3.95;;;2.47;;
74616;SDS011;63123;50.906;4.198;2023-02-24T07:16:37;2.85;;;2.22;;
74616;SDS011;63123;50.906;4.198;2023-02-24T07:19:09;4.18;;;2.95;;
74616;SDS011;63123;50.906;4.198;2023-02-24T07:21:38;3.78;;;2.50;;
74616;SDS011;63123;50.906;4.198;2023-02-24T07:24:10;2.55;;;2.10;;
74616;SDS011;63123;50.906;4.198;2023-02-24T07:26:38;2.60;;;2.03;;
74616;SDS011;63123;50.906;4.198;2023-02-24T07:29:05;4.00;;;2.83;;
74616;SDS011;63123;50.906;4.198;2023-02-24T07:31:31;3.00;;;2.15;;
74616;SDS011;63123;50.906;4.198;2023-02-24T07:33:58;3.58;;;2.17;;
74616;SDS011;63123;50.906;4.198;2023-02-24T07:36:26;4.30;;;2.25;;
74616;SDS011;63123;50.906;4.198;2023-02-24T07:40:35;4.10;;;2.63;;
74616;SDS011;63123;50.906;4.198;2023-02-24T07:43:01;2.88;;;1.80;;
74616;SDS011;63123;50.906;4.198;2023-02-24T07:45:27;3.88;;;2.25;;
74616;SDS011;63123;50.906;4.198;2023-02-24T07:47:53;3.83;;;2.33;;
74616;SDS011;63123;50.906;4.198;2023-02-24T07:50:19;5.20;;;2.65;;
74616;SDS011;63123;50.906;4.198;2023-02-24T07:52:45;4.03;;;2.33;;
74616;SDS011;63123;50.906;4.198;2023-02-24T07:55:15;3.33;;;2.30;;
74616;SDS011;63123;50.906;4.198;2023-02-24T07:57:41;3.80;;;2.10;;
74616;SDS011;63123;50.906;4.198;2023-02-24T08:00:10;4.35;;;2.53;;
74616;SDS011;63123;50.906;4.198;2023-02-24T08:02:42;3.53;;;1.90;;
74616;SDS011;63123;50.906;4.198;2023-02-24T08:05:09;4.05;;;2.63;;
74616;SDS011;63123;50.906;4.198;2023-02-24T08:07:34;3.90;;;2.10;;
74616;SDS011;63123;50.906;4.198;2023-02-24T08:10:00;3.40;;;2.08;;
74616;SDS011;63123;50.906;4.198;2023-02-24T08:12:38;3.53;;;2.25;;
74616;SDS011;63123;50.906;4.198;2023-02-24T08:15:08;2.17;;;1.70;;
74616;SDS011;63123;50.906;4.198;2023-02-24T08:17:41;4.65;;;3.10;;
74616;SDS011;63123;50.906;4.198;2023-02-24T08:20:08;4.07;;;2.38;;
74616;SDS011;63123;50.906;4.198;2023-02-24T08:22:37;2.95;;;2.35;;
74616;SDS011;63123;50.906;4.198;2023-02-24T08:25:16;3.65;;;1.98;;
74616;SDS011;63123;50.906;4.198;2023-02-24T08:27:51;4.20;;;2.50;;
74616;SDS011;63123;50.906;4.198;2023-02-24T08:30:22;3.37;;;1.90;;
74616;SDS011;63123;50.906;4.198;2023-02-24T08:32:50;2.95;;;2.15;;
74616;SDS011;63123;50.906;4.198;2023-02-24T08:35:21;2.97;;;1.85;;
74616;SDS011;63123;50.906;4.198;2023-02-24T08:37:51;3.45;;;2.33;;
74616;SDS011;63123;50.906;4.198;2023-02-24T08:42:59;4.32;;;2.35;;
74616;SDS011;63123;50.906;4.198;2023-02-24T08:45:39;4.63;;;2.00;;
74616;SDS011;63123;50.906;4.198;2023-02-24T08:48:24;2.90;;;2.13;;
74616;SDS011;63123;50.906;4.198;2023-02-24T08:50:57;4.18;;;2.40;;
74616;SDS011;63123;50.906;4.198;2023-02-24T08:53:26;2.78;;;1.90;;
74616;SDS011;63123;50.906;4.198;2023-02-24T08:55:56;2.80;;;2.25;;
74616;SDS011;63123;50.906;4.198;2023-02-24T08:58:23;3.85;;;2.05;;
74616;SDS011;63123;50.906;4.198;2023-02-24T09:00:55;3.53;;;2.13;;
74616;SDS011;63123;50.906;4.198;2023-02-24T09:03:27;3.53;;;2.05;;
74616;SDS011;63123;50.906;4.198;2023-02-24T09:06:01;2.22;;;1.55;;
74616;SDS011;63123;50.906;4.198;2023-02-24T09:08:33;3.53;;;1.88;;
74616;SDS011;63123;50.906;4.198;2023-02-24T09:11:04;3.30;;;2.00;;
74616;SDS011;63123;50.906;4.198;2023-02-24T09:13:37;3.47;;;2.00;;
74616;SDS011;63123;50.906;4.198;2023-02-24T09:16:16;2.70;;;1.75;;
74616;SDS011;63123;50.906;4.198;2023-02-24T09:18:43;4.30;;;2.13;;
74616;SDS011;63123;50.906;4.198;2023-02-24T09:21:09;3.90;;;2.03;;
74616;SDS011;63123;50.906;4.198;2023-02-24T09:24:00;3.50;;;1.98;;
74616;SDS011;63123;50.906;4.198;2023-02-24T09:26:31;3.55;;;1.60;;
74616;SDS011;63123;50.906;4.198;2023-02-24T09:29:07;2.58;;;2.15;;
74616;SDS011;63123;50.906;4.198;2023-02-24T09:31:55;3.35;;;2.03;;
74616;SDS011;63123;50.906;4.198;2023-02-24T09:34:29;2.53;;;1.58;;
74616;SDS011;63123;50.906;4.198;2023-02-24T09:37:02;2.55;;;1.60;;
74616;SDS011;63123;50.906;4.198;2023-02-24T09:39:29;1.95;;;1.50;;
74616;SDS011;63123;50.906;4.198;2023-02-24T09:42:20;4.45;;;2.00;;
74616;SDS011;63123;50.906;4.198;2023-02-24T09:44:49;1.63;;;1.48;;
74616;SDS011;63123;50.906;4.198;2023-02-24T09:52:38;2.55;;;1.40;;
74616;SDS011;63123;50.906;4.198;2023-02-24T09:58:05;3.05;;;1.98;;
74616;SDS011;63123;50.906;4.198;2023-02-24T10:00:45;2.97;;;1.80;;
74616;SDS011;63123;50.906;4.198;2023-02-24T10:03:44;2.75;;;1.90;;
74616;SDS011;63123;50.906;4.198;2023-02-24T10:06:44;2.35;;;1.75;;
74616;SDS011;63123;50.906;4.198;2023-02-24T10:11:59;2.47;;;1.73;;
74616;SDS011;63123;50.906;4.198;2023-02-24T10:17:21;2.85;;;2.13;;
74616;SDS011;63123;50.906;4.198;2023-02-24T10:19:49;2.53;;;1.65;;
74616;SDS011;63123;50.906;4.198;2023-02-24T10:22:33;3.30;;;1.98;;
74616;SDS011;63123;50.906;4.198;2023-02-24T10:25:24;2.72;;;1.90;;
74616;SDS011;63123;50.906;4.198;2023-02-24T10:28:10;4.57;;;2.28;;
74616;SDS011;63123;50.906;4.198;2023-02-24T10:34:04;3.47;;;1.95;;
74616;SDS011;63123;50.906;4.198;2023-02-24T10:39:12;2.95;;;1.83;;
74616;SDS011;63123;50.906;4.198;2023-02-24T10:41:44;3.42;;;1.85;;
74616;SDS011;63123;50.906;4.198;2023-02-24T10:44:18;3.85;;;2.00;;
74616;SDS011;63123;50.906;4.198;2023-02-24T10:46:57;2.60;;;1.90;;
74616;SDS011;63123;50.906;4.198;2023-02-24T10:49:56;2.50;;;1.63;;
74616;SDS011;63123;50.906;4.198;2023-02-24T10:52:42;3.28;;;2.17;;
74616;SDS011;63123;50.906;4.198;2023-02-24T11:01:06;2.47;;;1.67;;
74616;SDS011;63123;50.906;4.198;2023-02-24T11:03:38;3.00;;;2.30;;
74616;SDS011;63123;50.906;4.198;2023-02-24T11:06:16;2.45;;;1.60;;
74616;SDS011;63123;50.906;4.198;2023-02-24T11:09:04;2.85;;;2.05;;
74616;SDS011;63123;50.906;4.198;2023-02-24T11:11:43;3.20;;;1.85;;
74616;SDS011;63123;50.906;4.198;2023-02-24T11:14:29;2.05;;;1.60;;
74616;SDS011;63123;50.906;4.198;2023-02-24T11:17:18;2.50;;;1.50;;
74616;SDS011;63123;50.906;4.198;2023-02-24T11:22:50;2.35;;;1.42;;
74616;SDS011;63123;50.906;4.198;2023-02-24T11:25:34;2.80;;;1.95;;
74616;SDS011;63123;50.906;4.198;2023-02-24T11:28:00;3.20;;;1.60;;
74616;SDS011;63123;50.906;4.198;2023-02-24T11:30:41;2.42;;;1.90;;
74616;SDS011;63123;50.906;4.198;2023-02-24T11:33:25;2.35;;;1.85;;
74616;SDS011;63123;50.906;4.198;2023-02-24T11:41:10;2.65;;;1.55;;
74616;SDS011;63123;50.906;4.198;2023-02-24T11:43:42;3.13;;;1.90;;
74616;SDS011;63123;50.906;4.198;2023-02-24T11:46:16;2.33;;;2.03;;
74616;SDS011;63123;50.906;4.198;2023-02-24T11:48:46;2.60;;;1.90;;
74616;SDS011;63123;50.906;4.198;2023-02-24T11:51:19;2.60;;;1.80;;
74616;SDS011;63123;50.906;4.198;2023-02-24T11:53:58;2.53;;;1.77;;
74616;SDS011;63123;50.906;4.198;2023-02-24T11:59:34;2.50;;;2.03;;
74616;SDS011;63123;50.906;4.198;2023-02-24T12:04:46;2.90;;;2.03;;
74616;SDS011;63123;50.906;4.198;2023-02-24T12:07:24;2.53;;;1.77;;
74616;SDS011;63123;50.906;4.198;2023-02-24T12:18:40;2.65;;;1.90;;
74616;SDS011;63123;50.906;4.198;2023-02-24T12:21:12;2.30;;;1.60;;
74616;SDS011;63123;50.906;4.198;2023-02-24T12:23:44;2.17;;;1.73;;
74616;SDS011;63123;50.906;4.198;2023-02-24T12:26:17;2.92;;;2.08;;
74616;SDS011;63123;50.906;4.198;2023-02-24T12:45:44;2.45;;;2.08;;
74616;SDS011;63123;50.906;4.198;2023-02-24T12:54:05;2.88;;;2.17;;
74616;SDS011;63123;50.906;4.198;2023-02-24T12:56:59;3.58;;;1.92;;
74616;SDS011;63123;50.906;4.198;2023-02-24T12:59:36;2.92;;;1.88;;
74616;SDS011;63123;50.906;4.198;2023-02-24T13:04:33;3.00;;;2.13;;
74616;SDS011;63123;50.906;4.198;2023-02-24T13:15:18;2.92;;;2.55;;
74616;SDS011;63123;50.906;4.198;2023-02-24T13:17:46;2.30;;;2.10;;
74616;SDS011;63123;50.906;4.198;2023-02-24T13:20:24;2.65;;;2.25;;
74616;SDS011;63123;50.906;4.198;2023-02-24T13:23:01;2.75;;;2.10;;
74616;SDS011;63123;50.906;4.198;2023-02-24T13:27:58;2.10;;;1.77;;
74616;SDS011;63123;50.906;4.198;2023-02-24T13:33:05;3.57;;;2.00;;
74616;SDS011;63123;50.906;4.198;2023-02-24T13:35:40;3.83;;;2.30;;
74616;SDS011;63123;50.906;4.198;2023-02-24T13:38:07;3.50;;;2.03;;
74616;SDS011;63123;50.906;4.198;2023-02-24T13:40:45;2.92;;;2.53;;
74616;SDS011;63123;50.906;4.198;2023-02-24T13:43:22;2.90;;;2.20;;
74616;SDS011;63123;50.906;4.198;2023-02-24T13:45:53;3.08;;;2.35;;
74616;SDS011;63123;50.906;4.198;2023-02-24T13:56:55;3.15;;;2.03;;
74616;SDS011;63123;50.906;4.198;2023-02-24T13:59:34;2.28;;;2.03;;
74616;SDS011;63123;50.906;4.198;2023-02-24T14:02:16;2.00;;;1.80;;
74616;SDS011;63123;50.906;4.198;2023-02-24T14:04:48;4.13;;;2.60;;
74616;SDS011;63123;50.906;4.198;2023-02-24T14:07:20;2.65;;;2.10;;
74616;SDS011;63123;50.906;4.198;2023-02-24T14:09:54;2.92;;;1.92;;
74616;SDS011;63123;50.906;4.198;2023-02-24T14:12:23;3.05;;;2.38;;
74616;SDS011;63123;50.906;4.198;2023-02-24T14:14:51;2.65;;;2.20;;
74616;SDS011;63123;50.906;4.198;2023-02-24T14:17:34;2.67;;;1.88;;
74616;SDS011;63123;50.906;4.198;2023-02-24T14:20:09;2.90;;;2.42;;
74616;SDS011;63123;50.906;4.198;2023-02-24T14:22:44;1.70;;;1.60;;
74616;SDS011;63123;50.906;4.198;2023-02-24T14:25:12;2.78;;;2.08;;
74616;SDS011;63123;50.906;4.198;2023-02-24T14:27:41;2.35;;;2.15;;
74616;SDS011;63123;50.906;4.198;2023-02-24T14:30:54;4.00;;;2.45;;
74616;SDS011;63123;50.906;4.198;2023-02-24T14:33:03;2.53;;;2.30;;
74616;SDS011;63123;50.906;4.198;2023-02-24T14:37:59;3.95;;;2.20;;
74616;SDS011;63123;50.906;4.198;2023-02-24T14:40:26;2.10;;;1.80;;
74616;SDS011;63123;50.906;4.198;2023-02-24T14:42:52;2.65;;;1.70;;
74616;SDS011;63123;50.906;4.198;2023-02-24T14:45:19;1.85;;;1.70;;
74616;SDS011;63123;50.906;4.198;2023-02-24T14:47:49;1.75;;;1.65;;
74616;SDS011;63123;50.906;4.198;2023-02-24T14:50:15;2.67;;;1.85;;
74616;SDS011;63123;50.906;4.198;2023-02-24T14:58:02;2.47;;;2.00;;
74616;SDS011;63123;50.906;4.198;2023-02-24T15:00:35;2.55;;;2.35;;
74616;SDS011;63123;50.906;4.198;2023-02-24T15:03:09;2.03;;;1.70;;
74616;SDS011;63123;50.906;4.198;2023-02-24T15:05:53;2.47;;;2.00;;
74616;SDS011;63123;50.906;4.198;2023-02-24T15:11:06;2.35;;;2.10;;
74616;SDS011;63123;50.906;4.198;2023-02-24T15:14:26;3.30;;;2.22;;
74616;SDS011;63123;50.906;4.198;2023-02-24T15:16:43;2.35;;;1.90;;
74616;SDS011;63123;50.906;4.198;2023-02-24T15:19:30;2.05;;;1.70;;
74616;SDS011;63123;50.906;4.198;2023-02-24T15:22:01;2.40;;;2.20;;
74616;SDS011;63123;50.906;4.198;2023-02-24T15:24:29;2.15;;;1.90;;
74616;SDS011;63123;50.906;4.198;2023-02-24T15:27:01;2.83;;;2.20;;
74616;SDS011;63123;50.906;4.198;2023-02-24T15:29:44;2.90;;;2.20;;
74616;SDS011;63123;50.906;4.198;2023-02-24T15:34:58;2.88;;;2.10;;
74616;SDS011;63123;50.906;4.198;2023-02-24T15:37:25;2.83;;;2.38;;
74616;SDS011;63123;50.906;4.198;2023-02-24T15:40:02;3.40;;;2.25;;
74616;SDS011;63123;50.906;4.198;2023-02-24T15:42:48;3.13;;;2.17;;
74616;SDS011;63123;50.906;4.198;2023-02-24T15:45:27;2.40;;;1.88;;
74616;SDS011;63123;50.906;4.198;2023-02-24T15:47:54;2.55;;;2.35;;
74616;SDS011;63123;50.906;4.198;2023-02-24T15:50:22;2.08;;;1.92;;
74616;SDS011;63123;50.906;4.198;2023-02-24T15:52:48;2.30;;;2.10;;
74616;SDS011;63123;50.906;4.198;2023-02-24T15:55:14;2.30;;;2.10;;
74616;SDS011;63123;50.906;4.198;2023-02-24T15:57:40;2.45;;;2.25;;
74616;SDS011;63123;50.906;4.198;2023-02-24T16:00:07;2.53;;;2.08;;
74616;SDS011;63123;50.906;4.198;2023-02-24T16:02:37;1.83;;;1.67;;
74616;SDS011;63123;50.906;4.198;2023-02-24T16:05:03;3.25;;;2.10;;
74616;SDS011;63123;50.906;4.198;2023-02-24T16:07:29;2.50;;;2.10;;
74616;SDS011;63123;50.906;4.198;2023-02-24T16:09:58;2.53;;;2.30;;
74616;SDS011;63123;50.906;4.198;2023-02-24T16:12:29;2.17;;;1.98;;
74616;SDS011;63123;50.906;4.198;2023-02-24T16:14:59;3.67;;;3.30;;
74616;SDS011;63123;50.906;4.198;2023-02-24T16:17:30;2.42;;;2.03;;
74616;SDS011;63123;50.906;4.198;2023-02-24T16:19:59;2.35;;;2.15;;
74616;SDS011;63123;50.906;4.198;2023-02-24T16:22:26;2.13;;;1.92;;
74616;SDS011;63123;50.906;4.198;2023-02-24T16:24:52;3.28;;;2.70;;
74616;SDS011;63123;50.906;4.198;2023-02-24T16:27:19;2.95;;;2.67;;
74616;SDS011;63123;50.906;4.198;2023-02-24T16:29:47;2.13;;;1.92;;
74616;SDS011;63123;50.906;4.198;2023-02-24T16:32:13;2.22;;;1.90;;
74616;SDS011;63123;50.906;4.198;2023-02-24T16:34:39;2.85;;;2.20;;
74616;SDS011;63123;50.906;4.198;2023-02-24T16:37:15;2.50;;;2.30;;
74616;SDS011;63123;50.906;4.198;2023-02-24T16:39:43;2.35;;;2.15;;
74616;SDS011;63123;50.906;4.198;2023-02-24T16:42:09;3.08;;;2.50;;
74616;SDS011;63123;50.906;4.198;2023-02-24T16:44:35;2.65;;;2.45;;
74616;SDS011;63123;50.906;4.198;2023-02-24T16:47:01;3.13;;;2.22;;
74616;SDS011;63123;50.906;4.198;2023-02-24T16:49:27;3.17;;;2.47;;
74616;SDS011;63123;50.906;4.198;2023-02-24T16:51:53;2.95;;;2.50;;
74616;SDS011;63123;50.906;4.198;2023-02-24T16:54:18;3.25;;;2.45;;
74616;SDS011;63123;50.906;4.198;2023-02-24T16:56:52;3.08;;;2.20;;
74616;SDS011;63123;50.906;4.198;2023-02-24T16:59:21;3.20;;;2.40;;
74616;SDS011;63123;50.906;4.198;2023-02-24T17:01:47;2.67;;;2.47;;
74616;SDS011;63123;50.906;4.198;2023-02-24T17:04:12;3.58;;;2.30;;
74616;SDS011;63123;50.906;4.198;2023-02-24T17:06:38;3.05;;;2.42;;
74616;SDS011;63123;50.906;4.198;2023-02-24T17:09:05;2.95;;;2.20;;
74616;SDS011;63123;50.906;4.198;2023-02-24T17:11:30;3.00;;;2.53;;
74616;SDS011;63123;50.906;4.198;2023-02-24T17:13:56;3.22;;;2.38;;
74616;SDS011;63123;50.906;4.198;2023-02-24T17:16:22;2.90;;;2.15;;
74616;SDS011;63123;50.906;4.198;2023-02-24T17:18:48;3.38;;;2.20;;
74616;SDS011;63123;50.906;4.198;2023-02-24T17:21:13;4.13;;;1.98;;
74616;SDS011;63123;50.906;4.198;2023-02-24T17:23:40;2.33;;;1.98;;
74616;SDS011;63123;50.906;4.198;2023-02-24T17:26:09;2.13;;;1.88;;
74616;SDS011;63123;50.906;4.198;2023-02-24T17:28:38;2.88;;;1.80;;
74616;SDS011;63123;50.906;4.198;2023-02-24T17:31:04;2.35;;;2.15;;
74616;SDS011;63123;50.906;4.198;2023-02-24T17:33:31;2.40;;;1.98;;
74616;SDS011;63123;50.906;4.198;2023-02-24T17:36:00;3.17;;;2.55;;
74616;SDS011;63123;50.906;4.198;2023-02-24T17:38:25;2.45;;;1.85;;
74616;SDS011;63123;50.906;4.198;2023-02-24T17:40:51;2.25;;;1.80;;
74616;SDS011;63123;50.906;4.198;2023-02-24T17:43:17;2.55;;;1.92;;
74616;SDS011;63123;50.906;4.198;2023-02-24T17:45:44;2.72;;;1.88;;
74616;SDS011;63123;50.906;4.198;2023-02-24T17:48:11;3.33;;;2.30;;
74616;SDS011;63123;50.906;4.198;2023-02-24T17:50:41;1.90;;;1.70;;